createdAt,value
2019-02-19T00:02:08.916Z,25.40
2019-02-19T00:04:40.245Z,28.10
2019-02-19T00:07:11.595Z,16.10
2019-02-19T00:09:43.181Z,18.93
2019-02-19T00:12:14.775Z,24.00
2019-02-19T00:14:44.825Z,20.57
2019-02-19T00:17:14.926Z,29.60
2019-02-19T00:19:47.955Z,19.30
2019-02-19T00:22:19.519Z,19.80
2019-02-19T00:24:51.305Z,18.47
2019-02-19T00:27:22.748Z,22.60
2019-02-19T00:29:52.898Z,21.73
2019-02-19T00:32:27.189Z,19.53
2019-02-19T00:34:58.364Z,24.80
2019-02-19T00:37:28.443Z,19.10
2019-02-19T00:39:58.532Z,20.90
2019-02-19T00:42:33.196Z,14.00
2019-02-19T00:45:04.870Z,18.73
2019-02-19T00:47:34.948Z,17.00
2019-02-19T00:50:06.982Z,15.83
2019-02-19T00:52:37.004Z,19.50
2019-02-19T00:55:07.670Z,24.50
2019-02-19T00:57:37.676Z,21.43
2019-02-19T01:00:09.620Z,17.57
2019-02-19T01:02:39.712Z,20.87
2019-02-19T01:05:11.490Z,16.10
2019-02-19T01:07:41.550Z,20.80
2019-02-19T01:10:16.262Z,16.63
2019-02-19T01:12:46.350Z,24.37
2019-02-19T01:15:25.084Z,16.57
2019-02-19T01:17:49.229Z,18.77
2019-02-19T01:20:19.348Z,18.53
2019-02-19T01:22:49.427Z,19.00
2019-02-19T01:25:19.530Z,14.67
2019-02-19T01:27:53.488Z,16.20
2019-02-19T01:30:23.588Z,22.43
2019-02-19T01:32:53.589Z,18.83
2019-02-19T01:35:23.716Z,15.63
2019-02-19T01:37:55.355Z,19.17
2019-02-19T01:40:25.428Z,15.30
2019-02-19T01:42:57.206Z,16.40
2019-02-19T01:45:33.848Z,20.60
2019-02-19T01:47:58.998Z,17.53
2019-02-19T01:50:29.080Z,14.73
2019-02-19T01:53:00.279Z,15.40
2019-02-19T01:55:34.607Z,15.70
2019-02-19T01:58:06.647Z,18.40
2019-02-19T02:00:36.922Z,17.00
2019-02-19T02:03:08.098Z,15.40
2019-02-19T02:05:39.276Z,16.43
2019-02-19T02:08:10.509Z,14.33
2019-02-19T02:10:40.608Z,16.63
2019-02-19T02:13:13.546Z,14.30
2019-02-19T02:15:44.337Z,15.77
2019-02-19T02:18:14.337Z,17.67
2019-02-19T02:20:44.461Z,21.23
2019-02-19T02:23:16.249Z,19.87
2019-02-19T02:25:46.427Z,15.67
2019-02-19T02:28:16.505Z,13.40
2019-02-19T02:30:48.145Z,15.10
2019-02-19T02:33:18.267Z,14.80
2019-02-19T02:35:48.325Z,14.03
2019-02-19T02:38:21.213Z,16.23
2019-02-19T02:40:51.291Z,16.10
2019-02-19T02:43:22.377Z,19.53
2019-02-19T02:45:53.796Z,15.27
2019-02-19T02:48:24.055Z,16.70
2019-02-19T02:50:54.201Z,13.47
2019-02-19T02:53:24.287Z,10.60
2019-02-19T02:55:55.656Z,12.47
2019-02-19T02:58:25.817Z,15.90
2019-02-19T03:01:00.092Z,14.83
2019-02-19T03:03:30.114Z,14.60
2019-02-19T03:06:11.229Z,14.23
2019-02-19T03:08:42.925Z,17.93
2019-02-19T03:11:15.443Z,15.47
2019-02-19T03:13:47.190Z,11.83
2019-02-19T03:16:18.959Z,14.20
2019-02-19T03:18:50.592Z,14.10
2019-02-19T03:21:23.410Z,14.07
2019-02-19T03:23:57.748Z,14.60
2019-02-19T03:26:32.528Z,19.37
2019-02-19T03:29:02.623Z,15.40
2019-02-19T03:31:36.852Z,13.83
2019-02-19T03:34:07.017Z,16.00
2019-02-19T03:36:37.254Z,15.33
2019-02-19T03:39:09.822Z,11.90
2019-02-19T03:41:39.564Z,13.10
2019-02-19T03:44:09.637Z,17.33
2019-02-19T03:46:39.722Z,30.20
2019-02-19T03:49:09.798Z,22.83
2019-02-19T03:51:46.912Z,14.40
2019-02-19T03:54:18.710Z,22.07
2019-02-19T03:56:48.792Z,16.20
2019-02-19T03:59:18.954Z,14.60
2019-02-19T04:01:49.049Z,15.10
2019-02-19T04:04:19.057Z,18.40
2019-02-19T04:06:51.268Z,17.47
2019-02-19T04:09:23.986Z,19.27
2019-02-19T04:11:54.128Z,13.90
2019-02-19T04:14:25.337Z,15.80
2019-02-19T04:16:55.488Z,15.83
2019-02-19T04:19:25.557Z,15.33
2019-02-19T04:21:56.724Z,16.60
2019-02-19T04:24:26.824Z,16.83
2019-02-19T04:26:56.920Z,16.17
2019-02-19T04:29:28.017Z,17.30
2019-02-19T04:31:59.754Z,15.23
2019-02-19T04:34:31.233Z,18.80
2019-02-19T04:37:03.826Z,13.47
2019-02-19T04:39:33.921Z,14.17
2019-02-19T04:42:04.016Z,15.80
2019-02-19T04:44:34.111Z,13.77
2019-02-19T04:47:05.802Z,13.47
2019-02-19T04:49:37.130Z,16.77
2019-02-19T04:52:07.452Z,17.77
2019-02-19T04:54:38.707Z,19.20
2019-02-19T04:57:11.509Z,13.60
2019-02-19T04:59:43.239Z,17.77
2019-02-19T05:02:13.281Z,12.27
2019-02-19T05:04:47.251Z,12.40
2019-02-19T05:07:16.817Z,13.70
2019-02-19T05:09:48.092Z,15.77
2019-02-19T05:12:18.233Z,11.43
2019-02-19T05:14:48.324Z,19.57
2019-02-19T05:17:18.499Z,12.57
2019-02-19T05:19:48.608Z,13.00
2019-02-19T05:22:22.067Z,17.13
2019-02-19T05:24:56.598Z,15.67
2019-02-19T05:27:27.914Z,14.53
2019-02-19T05:29:58.061Z,14.87
2019-02-19T05:32:28.215Z,14.10
2019-02-19T05:34:58.384Z,12.07
2019-02-19T05:37:31.174Z,15.07
2019-02-19T05:40:01.261Z,16.53
2019-02-19T05:42:33.162Z,14.57
2019-02-19T05:45:04.746Z,9.30
2019-02-19T05:47:36.124Z,14.70
2019-02-19T05:50:09.152Z,14.30
2019-02-19T05:52:39.247Z,14.50
2019-02-19T05:55:10.549Z,13.87
2019-02-19T05:57:40.951Z,17.40
2019-02-19T06:00:15.844Z,13.73
2019-02-19T06:02:47.624Z,17.57
2019-02-19T06:05:17.698Z,20.47
2019-02-19T06:07:49.470Z,18.43
2019-02-19T06:10:19.564Z,23.77
2019-02-19T06:12:49.583Z,15.87
2019-02-19T06:15:23.887Z,17.47
2019-02-19T06:17:55.148Z,17.23
2019-02-19T06:20:29.283Z,19.80
2019-02-19T06:23:00.844Z,20.50
2019-02-19T06:25:33.410Z,14.27
2019-02-19T06:28:03.500Z,16.20
2019-02-19T06:30:33.616Z,16.43
2019-02-19T06:33:06.976Z,15.50
2019-02-19T06:35:38.661Z,22.27
2019-02-19T06:38:13.487Z,16.53
2019-02-19T06:40:45.128Z,16.77
2019-02-19T06:43:16.994Z,12.97
2019-02-19T06:45:51.091Z,16.67
2019-02-19T06:48:21.181Z,14.97
2019-02-19T06:50:51.287Z,13.90
2019-02-19T06:53:21.375Z,10.97
2019-02-19T06:55:52.441Z,12.43
2019-02-19T06:58:23.767Z,13.30
2019-02-19T07:00:57.101Z,12.37
2019-02-19T07:03:39.523Z,14.47
2019-02-19T07:06:09.273Z,15.63
2019-02-19T07:08:43.822Z,20.10
2019-02-19T07:11:13.109Z,17.83
2019-02-19T07:13:44.306Z,21.93
2019-02-19T07:16:23.605Z,19.00
2019-02-19T07:18:49.259Z,17.47
2019-02-19T07:21:19.360Z,16.43
2019-02-19T07:23:51.145Z,17.67
2019-02-19T07:26:21.205Z,22.17
2019-02-19T07:28:51.301Z,14.77
2019-02-19T07:31:21.365Z,14.63
2019-02-19T07:33:56.415Z,13.43
2019-02-19T07:36:26.479Z,17.53
2019-02-19T07:39:01.059Z,15.27
2019-02-19T07:41:31.152Z,14.33
2019-02-19T07:44:02.424Z,12.17
2019-02-19T07:46:34.507Z,12.40
2019-02-19T07:49:05.382Z,15.87
2019-02-19T07:51:36.670Z,18.47
2019-02-19T07:54:06.748Z,16.80
2019-02-19T07:56:36.836Z,16.67
2019-02-19T07:59:06.925Z,18.37
2019-02-19T08:01:36.939Z,15.20
2019-02-19T08:04:08.252Z,15.50
2019-02-19T08:06:40.039Z,21.10
2019-02-19T08:09:15.945Z,13.97
2019-02-19T08:11:45.942Z,25.30
2019-02-19T08:14:16.020Z,44.53
2019-02-19T08:16:48.918Z,71.67
2019-02-19T08:19:20.652Z,40.53
2019-02-19T08:21:52.018Z,33.50
2019-02-19T08:24:22.128Z,26.70
2019-02-19T08:26:53.682Z,22.77
2019-02-19T08:29:24.766Z,18.00
2019-02-19T08:31:55.978Z,18.77
2019-02-19T08:34:27.755Z,13.53
2019-02-19T08:36:57.910Z,22.03
2019-02-19T08:39:27.948Z,11.80
2019-02-19T08:41:57.970Z,24.20
2019-02-19T08:44:28.065Z,13.03
2019-02-19T08:46:58.166Z,16.23
2019-02-19T08:49:28.202Z,15.63
2019-02-19T08:51:58.215Z,9.27
2019-02-19T08:54:28.220Z,10.17
2019-02-19T08:56:58.419Z,14.53
2019-02-19T08:59:28.568Z,12.67
2019-02-19T09:01:58.581Z,12.70
2019-02-19T09:04:28.648Z,22.87
2019-02-19T09:06:58.933Z,18.97
2019-02-19T09:09:28.994Z,13.37
2019-02-19T09:11:59.070Z,15.70
2019-02-19T09:14:29.080Z,9.10
2019-02-19T09:16:59.081Z,7.93
2019-02-19T09:19:29.175Z,11.90
2019-02-19T09:21:59.255Z,8.30
2019-02-19T09:24:29.339Z,12.00
2019-02-19T09:26:59.448Z,10.63
2019-02-19T09:29:29.537Z,11.83
2019-02-19T09:31:59.640Z,14.40
2019-02-19T09:34:29.703Z,12.07
2019-02-19T09:36:59.719Z,11.93
2019-02-19T09:39:29.805Z,7.17
2019-02-19T09:41:59.805Z,7.00
2019-02-19T09:44:29.805Z,7.30
2019-02-19T09:46:59.962Z,8.47
2019-02-19T09:49:29.986Z,8.77
2019-02-19T09:52:00.073Z,7.73
2019-02-19T09:54:30.091Z,8.03
2019-02-19T09:57:00.168Z,8.27
2019-02-19T09:59:30.179Z,9.53
2019-02-19T10:02:00.315Z,8.00
2019-02-19T10:04:30.403Z,7.80
2019-02-19T10:07:00.487Z,8.10
2019-02-19T10:09:30.511Z,10.77
2019-02-19T10:12:00.502Z,9.25
2019-02-19T10:14:30.534Z,22.20
2019-02-19T10:17:00.733Z,11.23
2019-02-19T10:19:30.839Z,8.87
2019-02-19T10:22:00.825Z,9.63
2019-02-19T10:24:30.934Z,10.50
2019-02-19T10:27:01.048Z,8.73
2019-02-19T10:29:31.162Z,9.47
2019-02-19T10:32:01.293Z,9.63
2019-02-19T10:34:31.436Z,11.43
2019-02-19T10:37:01.529Z,9.73
2019-02-19T10:39:31.602Z,9.48
2019-02-19T10:42:02.893Z,10.30
2019-02-19T10:44:34.330Z,9.30
2019-02-19T10:47:07.185Z,8.87
2019-02-19T10:49:38.988Z,13.03
2019-02-19T10:52:09.076Z,9.47
2019-02-19T10:54:39.074Z,9.47
2019-02-19T10:57:09.135Z,12.50
2019-02-19T10:59:41.968Z,9.30
2019-02-19T11:02:12.039Z,9.43
2019-02-19T11:04:42.113Z,9.87
2019-02-19T11:07:12.128Z,9.63
2019-02-19T11:09:42.228Z,10.37
2019-02-19T11:12:12.360Z,10.67
2019-02-19T11:14:42.434Z,10.97
2019-02-19T11:17:12.523Z,9.33
2019-02-19T11:19:42.687Z,10.10
2019-02-19T11:22:13.649Z,8.83
2019-02-19T11:24:43.940Z,12.93
2019-02-19T11:27:14.027Z,10.03
2019-02-19T11:29:44.174Z,9.07
2019-02-19T11:32:14.210Z,10.53
2019-02-19T11:34:44.321Z,11.87
2019-02-19T11:37:14.369Z,11.33
2019-02-19T11:39:44.566Z,12.80
2019-02-19T11:42:14.641Z,8.27
2019-02-19T11:44:44.671Z,11.10
2019-02-19T11:47:14.797Z,8.53
2019-02-19T11:49:44.830Z,10.73
2019-02-19T11:52:14.947Z,10.30
2019-02-19T11:54:44.985Z,9.00
2019-02-19T11:57:14.991Z,8.27
2019-02-19T11:59:45.083Z,7.80
2019-02-19T12:02:16.620Z,8.33
2019-02-19T12:04:46.771Z,9.07
2019-02-19T12:07:16.774Z,7.53
2019-02-19T12:09:46.791Z,13.23
2019-02-19T12:12:16.799Z,8.17
2019-02-19T12:14:46.919Z,11.53
2019-02-19T12:17:16.945Z,10.50
2019-02-19T12:19:47.633Z,11.50
2019-02-19T12:22:17.645Z,9.90
2019-02-19T12:24:47.704Z,8.03
2019-02-19T12:27:17.697Z,12.20
2019-02-19T12:29:47.783Z,7.90
2019-02-19T12:32:18.185Z,8.30
2019-02-19T12:34:49.485Z,10.50
2019-02-19T12:37:21.305Z,8.70
2019-02-19T12:39:51.204Z,7.10
2019-02-19T12:42:21.212Z,8.67
2019-02-19T12:44:51.235Z,7.67
2019-02-19T12:47:21.240Z,10.30
2019-02-19T12:49:51.253Z,7.50
2019-02-19T12:52:21.413Z,7.30
2019-02-19T12:54:51.553Z,10.17
2019-02-19T12:57:21.653Z,9.90
2019-02-19T12:59:56.612Z,10.77
2019-02-19T13:02:25.920Z,10.87
2019-02-19T13:05:00.813Z,9.47
2019-02-19T13:07:29.363Z,9.97
2019-02-19T13:09:59.580Z,10.13
2019-02-19T13:12:31.639Z,9.03
2019-02-19T13:15:01.451Z,9.23
2019-02-19T13:17:35.392Z,14.17
2019-02-19T13:20:08.842Z,11.20
2019-02-19T13:22:40.207Z,10.60
2019-02-19T13:25:13.704Z,15.50
2019-02-19T13:27:45.429Z,9.40
2019-02-19T13:30:16.136Z,10.63
2019-02-19T13:32:48.313Z,11.17
2019-02-19T13:35:20.836Z,12.30
2019-02-19T13:37:51.250Z,9.03
2019-02-19T13:40:22.352Z,8.37
2019-02-19T13:42:53.882Z,13.27
2019-02-19T13:45:24.113Z,10.97
2019-02-19T13:47:54.150Z,20.90
2019-02-19T13:50:26.037Z,10.93
2019-02-19T13:53:14.071Z,12.27
2019-02-19T13:55:48.335Z,10.87
2019-02-19T13:58:18.408Z,10.03
2019-02-19T14:00:48.907Z,10.40
2019-02-19T14:03:20.223Z,13.40
2019-02-19T14:05:50.465Z,15.43
2019-02-19T14:08:21.558Z,19.13
2019-02-19T14:10:51.563Z,16.70
2019-02-19T14:13:22.583Z,20.70
2019-02-19T14:16:26.861Z,9.17
2019-02-19T14:18:59.904Z,10.37
2019-02-19T14:21:57.125Z,8.87
2019-02-19T14:24:48.891Z,8.90
2019-02-19T14:27:44.159Z,9.03
2019-02-19T14:30:40.271Z,8.40
2019-02-19T14:33:35.259Z,20.77
2019-02-19T14:36:30.363Z,17.43
2019-02-19T14:39:28.603Z,11.17
2019-02-19T14:42:23.771Z,10.17
2019-02-19T14:45:15.893Z,12.70
2019-02-19T14:47:58.665Z,10.60
2019-02-19T14:50:46.403Z,8.00
2019-02-19T14:53:47.608Z,9.07
2019-02-19T14:56:35.301Z,10.13
2019-02-19T14:59:24.322Z,8.50
2019-02-19T15:02:06.895Z,15.00
2019-02-19T15:04:54.624Z,8.00
2019-02-19T15:07:45.824Z,14.63
2019-02-19T15:10:33.941Z,11.80
2019-02-19T15:13:22.238Z,9.27
2019-02-19T15:16:09.714Z,15.80
2019-02-19T15:18:54.161Z,11.80
2019-02-19T15:21:49.209Z,11.93
2019-02-19T15:24:37.010Z,9.40
2019-02-19T15:27:22.082Z,8.23
2019-02-19T15:30:15.738Z,8.33
2019-02-19T15:32:58.757Z,7.10
2019-02-19T15:36:00.196Z,7.10
2019-02-19T15:39:02.606Z,10.03
2019-02-19T15:41:53.112Z,8.67
2019-02-19T15:44:40.968Z,9.73
2019-02-19T15:47:28.739Z,8.43
2019-02-19T15:50:20.610Z,7.73
2019-02-19T15:53:04.914Z,7.87
2019-02-19T15:55:52.682Z,7.80
2019-02-19T15:58:40.692Z,9.70
2019-02-19T16:01:25.848Z,8.67
2019-02-19T16:04:30.601Z,13.83
2019-02-19T16:07:33.507Z,7.97
2019-02-19T16:10:39.755Z,10.77
2019-02-19T16:13:23.703Z,15.33
2019-02-19T16:16:18.621Z,11.13
2019-02-19T16:19:10.389Z,10.90
2019-02-19T16:21:49.125Z,9.63
2019-02-19T16:24:47.183Z,9.13
2019-02-19T16:27:28.163Z,11.17
2019-02-19T16:30:15.569Z,10.80
2019-02-19T16:32:59.527Z,9.20
2019-02-19T16:35:48.232Z,9.73
2019-02-19T16:38:35.564Z,16.90
2019-02-19T16:41:19.601Z,12.73
2019-02-19T16:44:00.805Z,12.63
2019-02-19T16:47:08.365Z,10.27
2019-02-19T16:50:08.035Z,13.80
2019-02-19T16:53:00.253Z,17.27
2019-02-19T16:55:51.293Z,11.03
2019-02-19T16:58:43.201Z,12.17
2019-02-19T17:01:20.045Z,9.47
2019-02-19T17:04:14.186Z,12.30
2019-02-19T17:07:02.789Z,10.40
2019-02-19T17:09:54.704Z,10.80
2019-02-19T17:12:34.656Z,10.67
2019-02-19T17:15:27.496Z,11.07
2019-02-19T17:18:16.450Z,8.13
2019-02-19T17:21:08.330Z,9.27
2019-02-19T17:24:01.575Z,7.97
2019-02-19T17:26:50.647Z,12.47
2019-02-19T17:29:33.132Z,6.40
2019-02-19T17:32:35.427Z,6.00
2019-02-19T17:35:20.792Z,5.50
2019-02-19T17:38:14.113Z,10.80
2019-02-19T17:40:58.717Z,10.10
2019-02-19T17:43:39.018Z,7.03
2019-02-19T17:46:30.888Z,9.10
2019-02-19T17:49:12.972Z,7.60
2019-02-19T17:52:03.652Z,8.60
2019-02-19T17:54:52.611Z,6.73
2019-02-19T17:57:38.975Z,12.83
2019-02-19T18:00:35.631Z,6.40
2019-02-19T18:03:24.039Z,8.03
2019-02-19T18:06:12.072Z,14.67
2019-02-19T18:09:00.179Z,50.20
2019-02-19T18:11:59.458Z,41.80
2019-02-19T18:15:04.090Z,13.73
2019-02-19T18:17:44.960Z,7.03
2019-02-19T18:20:15.229Z,8.13
2019-02-19T18:22:48.619Z,7.23
2019-02-19T18:25:18.956Z,7.40
2019-02-19T18:27:49.193Z,8.57
2019-02-19T18:30:19.772Z,8.40
2019-02-19T18:32:52.280Z,10.30
2019-02-19T18:35:22.534Z,8.77
2019-02-19T18:37:55.813Z,9.50
2019-02-19T18:40:27.901Z,9.73
2019-02-19T18:42:59.557Z,12.40
2019-02-19T18:45:29.789Z,12.10
2019-02-19T18:48:03.336Z,13.67
2019-02-19T18:50:40.295Z,15.60
2019-02-19T18:53:11.289Z,16.57
2019-02-19T18:55:42.320Z,11.50
2019-02-19T18:58:14.842Z,9.33
2019-02-19T19:00:45.095Z,7.07
2019-02-19T19:03:15.500Z,10.03
2019-02-19T19:05:47.232Z,8.00
2019-02-19T19:08:25.921Z,8.40
2019-02-19T19:10:56.542Z,10.70
2019-02-19T19:13:27.930Z,8.00
2019-02-19T19:15:58.266Z,7.67
2019-02-19T19:18:30.030Z,10.43
2019-02-19T19:21:07.652Z,10.57
2019-02-19T19:23:36.306Z,7.93
2019-02-19T19:26:07.884Z,8.50
2019-02-19T19:28:40.667Z,9.07
2019-02-19T19:31:12.580Z,8.50
2019-02-19T19:33:43.086Z,9.23
2019-02-19T19:36:15.015Z,8.33
2019-02-19T19:38:46.577Z,15.50
2019-02-19T19:41:20.600Z,10.20
2019-02-19T19:43:52.465Z,11.47
2019-02-19T19:46:23.796Z,8.20
2019-02-19T19:48:54.654Z,7.50
2019-02-19T19:51:25.736Z,9.60
2019-02-19T19:53:57.119Z,9.70
2019-02-19T19:56:28.192Z,9.17
2019-02-19T19:59:02.159Z,9.43
2019-02-19T20:01:35.277Z,8.47
2019-02-19T20:04:06.965Z,9.37
2019-02-19T20:06:40.164Z,8.93
2019-02-19T20:09:10.772Z,9.57
2019-02-19T20:11:43.487Z,7.70
2019-02-19T20:14:16.517Z,8.20
2019-02-19T20:16:48.999Z,10.10
2019-02-19T20:19:21.564Z,9.20
2019-02-19T20:21:56.713Z,8.40
2019-02-19T20:24:28.451Z,12.03
2019-02-19T20:27:01.317Z,7.80
2019-02-19T20:29:32.360Z,8.67
2019-02-19T20:32:17.349Z,8.67
2019-02-19T20:34:51.305Z,9.33
2019-02-19T20:37:23.663Z,12.43
2019-02-19T20:39:54.419Z,10.40
2019-02-19T20:42:25.195Z,12.07
2019-02-19T20:44:58.870Z,11.60
2019-02-19T20:47:30.837Z,10.97
2019-02-19T20:50:01.544Z,12.77
2019-02-19T20:52:33.141Z,14.87
2019-02-19T20:55:06.020Z,12.10
2019-02-19T20:57:36.621Z,11.60
2019-02-19T21:00:11.817Z,12.53
2019-02-19T21:02:49.510Z,10.33
2019-02-19T21:05:21.851Z,9.73
2019-02-19T21:07:54.262Z,15.10
2019-02-19T21:10:26.036Z,24.57
2019-02-19T21:12:56.318Z,24.83
2019-02-19T21:15:27.048Z,21.93
2019-02-19T21:17:57.321Z,18.90
2019-02-19T21:20:27.719Z,12.63
2019-02-19T21:22:58.019Z,13.80
2019-02-19T21:25:30.971Z,12.60
2019-02-19T21:28:03.058Z,11.70
2019-02-19T21:30:34.540Z,12.43
2019-02-19T21:33:04.828Z,11.67
2019-02-19T21:35:35.496Z,11.63
2019-02-19T21:38:06.811Z,10.93
2019-02-19T21:40:38.231Z,12.20
2019-02-19T21:43:12.513Z,11.30
2019-02-19T21:45:47.088Z,12.60
2019-02-19T21:48:17.533Z,13.37
2019-02-19T21:50:47.743Z,22.00
2019-02-19T21:53:19.464Z,17.53
2019-02-19T21:55:49.667Z,12.93
2019-02-19T21:58:24.149Z,15.13
2019-02-19T22:00:55.508Z,14.27
2019-02-19T22:03:25.581Z,14.13
2019-02-19T22:05:55.816Z,15.70
2019-02-19T22:08:26.363Z,19.23
2019-02-19T22:10:57.700Z,23.43
2019-02-19T22:13:30.490Z,18.53
2019-02-19T22:16:01.858Z,19.80
2019-02-19T22:18:33.934Z,15.30
2019-02-19T22:21:23.184Z,17.13
2019-02-19T22:23:55.072Z,16.37
2019-02-19T22:26:26.462Z,16.57
2019-02-19T22:28:57.785Z,17.57
2019-02-19T22:31:29.640Z,19.70
2019-02-19T22:34:00.853Z,16.20
2019-02-19T22:36:30.901Z,17.53
2019-02-19T22:39:02.751Z,18.00
2019-02-19T22:41:35.916Z,17.63
2019-02-19T22:44:09.504Z,25.40
2019-02-19T22:46:40.648Z,20.50
2019-02-19T22:49:10.782Z,18.07
2019-02-19T22:51:40.864Z,19.50
2019-02-19T22:54:21.776Z,19.93
2019-02-19T22:56:49.102Z,24.73
2019-02-19T22:59:22.763Z,22.83
2019-02-19T23:01:59.599Z,20.20
2019-02-19T23:04:33.983Z,20.93
2019-02-19T23:07:07.112Z,22.30
2019-02-19T23:09:36.995Z,21.13
2019-02-19T23:12:07.148Z,18.63
2019-02-19T23:14:37.244Z,20.73
2019-02-19T23:17:08.707Z,22.90
2019-02-19T23:19:40.314Z,19.83
2019-02-19T23:22:10.297Z,20.80
2019-02-19T23:24:40.395Z,20.93
2019-02-19T23:27:14.216Z,22.93
2019-02-19T23:29:44.170Z,29.03
2019-02-19T23:32:16.307Z,20.83
2019-02-19T23:34:49.379Z,24.20
2019-02-19T23:37:24.623Z,22.10
2019-02-19T23:39:54.714Z,21.47
2019-02-19T23:42:27.715Z,21.00
2019-02-19T23:44:58.990Z,19.30
2019-02-19T23:47:29.001Z,23.87
2019-02-19T23:49:59.225Z,21.87
2019-02-19T23:52:30.598Z,19.17
2019-02-19T23:55:01.970Z,20.53
2019-02-19T23:57:33.624Z,22.67
